Time;durP1;ratioP1;P1;durP2;ratioP2;P2;SDS_P1;SDS_P2;PMS_P1;PMS_P2;Temp;Humidity;BMP_temperature;BMP_pressure;BME280_temperature;BME280_humidity;BME280_pressure;Samples;Min_cycle;Max_cycle;Signal;HPM_P1;HPM_P2
2024/02/24 00:01:17;;;;;;;4.75;1.98;;;;;;;7.97;50.63;98096.88;4165965;28;20280;-73
2024/02/24 00:03:17;;;;;;;5.40;2.05;;;;;;;8.01;50.51;98089.38;4163700;28;20045;-73
2024/02/24 00:05:18;;;;;;;4.35;1.83;;;;;;;7.96;50.43;98093.38;4161551;28;20430;-73
2024/02/24 00:07:18;;;;;;;5.43;1.83;;;;;;;7.95;50.44;98090.88;4156004;28;20061;-74
2024/02/24 00:09:18;;;;;;;4.40;1.77;;;;;;;7.85;50.67;98104.41;4150688;28;20672;-74
2024/02/24 00:11:19;;;;;;;5.80;1.75;;;;;;;7.77;50.63;98101.78;4156908;28;20519;-73
2024/02/24 00:13:19;;;;;;;5.77;1.63;;;;;;;7.79;50.65;98110.44;4157070;28;20389;-73
2024/02/24 00:15:20;;;;;;;4.32;1.60;;;;;;;7.85;50.48;98103.59;4156632;28;20314;-74
2024/02/24 00:17:21;;;;;;;8.10;1.90;;;;;;;7.82;50.62;98102.09;4156897;28;20034;-73
2024/02/24 00:19:21;;;;;;;5.97;1.65;;;;;;;7.99;50.21;98097.50;4156740;28;20033;-74
2024/02/24 00:21:22;;;;;;;5.30;1.90;;;;;;;8.05;50.12;98094.16;4148712;28;20026;-75
2024/02/24 00:23:23;;;;;;;5.60;1.85;;;;;;;8.09;50.05;98089.31;4157038;28;20029;-74
2024/02/24 00:25:23;;;;;;;4.22;1.50;;;;;;;8.10;49.85;98094.44;4157036;28;20619;-73
2024/02/24 00:27:24;;;;;;;5.30;1.70;;;;;;;8.08;49.81;98096.44;4157030;28;20030;-73
2024/02/24 00:29:24;;;;;;;4.60;1.63;;;;;;;8.18;49.63;98088.25;4156940;28;20036;-74
2024/02/24 00:31:25;;;;;;;4.68;1.70;;;;;;;7.96;50.00;98090.72;4155478;28;20022;-73
2024/02/24 00:33:25;;;;;;;5.88;2.25;;;;;;;8.03;49.84;98098.81;4163528;28;20580;-74
2024/02/24 00:35:28;;;;;;;4.53;1.50;;;;;;;8.10;49.59;98099.75;4156521;28;20025;-74
2024/02/24 00:37:28;;;;;;;7.05;1.90;;;;;;;8.01;49.58;98095.50;4150548;28;20026;-73
2024/02/24 00:39:30;;;;;;;4.90;1.97;;;;;;;7.95;49.90;98105.00;4155401;28;20061;-72
2024/02/24 00:41:30;;;;;;;5.30;1.92;;;;;;;7.90;49.87;98098.56;4164629;28;20356;-75
2024/02/24 00:43:31;;;;;;;4.25;1.67;;;;;;;7.92;49.81;98107.19;4163686;28;20033;-73
2024/02/24 00:45:31;;;;;;;6.40;1.90;;;;;;;7.87;50.01;98113.03;4164976;28;20432;-74
2024/02/24 00:47:32;;;;;;;6.10;1.90;;;;;;;7.99;49.51;98117.97;4167266;28;20268;-72
2024/02/24 00:49:32;;;;;;;4.78;1.58;;;;;;;8.05;49.53;98117.25;4163232;28;20061;-72
2024/02/24 00:51:33;;;;;;;3.78;1.38;;;;;;;7.97;49.67;98124.28;4162759;28;20025;-72
2024/02/24 00:53:33;;;;;;;4.57;1.57;;;;;;;8.02;49.62;98121.09;4159702;28;20053;-73
2024/02/24 00:55:34;;;;;;;3.17;1.37;;;;;;;8.17;49.19;98121.19;4156674;28;20037;-73
2024/02/24 00:57:34;;;;;;;4.22;1.67;;;;;;;8.25;49.02;98105.16;4164687;28;20489;-72
2024/02/24 00:59:34;;;;;;;4.67;1.40;;;;;;;8.30;48.96;98104.63;4161640;28;20026;-73
2024/02/24 01:01:35;;;;;;;3.70;1.65;;;;;;;8.26;49.11;98104.16;4156251;28;20037;-73
2024/02/24 01:03:35;;;;;;;5.82;1.70;;;;;;;7.99;49.48;98108.16;4148077;28;20434;-73
2024/02/24 01:05:36;;;;;;;5.50;1.77;;;;;;;7.91;49.94;98100.22;4159346;28;20461;-73
2024/02/24 01:07:36;;;;;;;4.47;1.90;;;;;;;8.00;49.58;98095.69;4156177;28;20049;-73
2024/02/24 01:09:37;;;;;;;6.10;1.93;;;;;;;8.07;49.48;98094.81;4153200;28;20083;-73
2024/02/24 01:11:37;;;;;;;4.97;1.95;;;;;;;7.82;49.91;98102.09;4155943;28;20734;-73
2024/02/24 01:13:38;;;;;;;4.88;1.63;;;;;;;7.80;50.17;98112.09;4154787;28;20037;-73
2024/02/24 01:15:39;;;;;;;5.23;1.60;;;;;;;7.69;50.35;98108.00;4151561;28;20033;-73
2024/02/24 01:17:39;;;;;;;6.72;2.17;;;;;;;7.67;50.47;98109.16;4147296;28;20265;-73
2024/02/24 01:19:39;;;;;;;7.43;1.90;;;;;;;7.56;50.79;98105.06;4155766;28;20022;-74
2024/02/24 01:21:41;;;;;;;4.70;1.90;;;;;;;7.69;50.41;98107.16;4159108;28;20018;-73
2024/02/24 01:23:42;;;;;;;4.75;1.65;;;;;;;7.80;50.20;98098.78;4151221;28;20265;-74
2024/02/24 01:25:44;;;;;;;4.85;1.67;;;;;;;7.80;50.10;98101.44;4151671;28;20032;-74
2024/02/24 01:27:44;;;;;;;3.75;1.58;;;;;;;7.96;49.84;98103.19;4147906;28;20029;-73
2024/02/24 01:29:45;;;;;;;6.90;1.80;;;;;;;7.82;49.98;98104.78;4150214;28;20062;-74
2024/02/24 01:31:45;;;;;;;6.28;1.95;;;;;;;7.68;50.39;98103.69;4147406;28;20034;-74
2024/02/24 01:33:46;;;;;;;4.47;1.90;;;;;;;7.78;50.20;98106.09;4147685;28;20387;-75
2024/02/24 01:35:46;;;;;;;7.07;2.25;;;;;;;7.56;50.64;98110.38;4149030;28;20291;-75
2024/02/24 01:37:46;;;;;;;6.93;2.03;;;;;;;7.47;50.87;98107.75;4154115;28;20030;-73
2024/02/24 01:39:47;;;;;;;6.57;2.00;;;;;;;7.56;50.83;98110.38;4148485;28;20592;-72
2024/02/24 01:41:48;;;;;;;6.90;1.75;;;;;;;7.40;51.16;98113.91;4148112;28;20801;-73
2024/02/24 01:43:48;;;;;;;5.28;1.77;;;;;;;7.24;51.56;98115.63;4155647;28;20033;-73
2024/02/24 01:45:53;;;;;;;5.23;2.10;;;;;;;7.43;51.26;98109.09;4161913;28;20042;-74
2024/02/24 01:47:54;;;;;;;6.15;1.90;;;;;;;7.19;51.79;98117.97;4165864;28;20265;-74
2024/02/24 01:49:55;;;;;;;5.97;2.10;;;;;;;7.23;51.66;98127.25;4161843;28;20034;-73
2024/02/24 01:51:56;;;;;;;;;;;;;;;7.17;52.04;98119.97;4148530;28;20034;-73
2024/02/24 01:53:56;;;;;;;5.23;1.80;;;;;;;7.18;52.05;98116.28;4148546;28;20324;-73
2024/02/24 01:55:59;;;;;;;7.47;1.77;;;;;;;7.26;51.97;98126.94;4147147;28;20291;-74
2024/02/24 01:58:02;;;;;;;7.22;1.98;;;;;;;7.34;51.74;98129.56;4147205;28;20037;-73
2024/02/24 02:00:04;;;;;;;4.68;1.67;;;;;;;7.43;51.73;98129.53;4146498;28;20022;-73
2024/02/24 02:02:05;;;;;;;4.25;1.77;;;;;;;7.30;51.90;98128.22;4147884;28;20486;-73
2024/02/24 02:04:05;;;;;;;5.00;1.77;;;;;;;7.39;51.91;98128.22;4150779;28;20042;-73
2024/02/24 02:06:06;;;;;;;4.72;1.67;;;;;;;7.56;51.39;98132.47;4148472;28;20030;-73
2024/02/24 02:08:07;;;;;;;6.88;1.90;;;;;;;7.44;51.86;98132.00;4148996;28;20026;-72
2024/02/24 02:10:08;;;;;;;5.20;1.98;;;;;;;7.46;52.01;98134.53;4147541;28;20026;-73
2024/02/24 02:12:08;;;;;;;6.63;2.03;;;;;;;7.32;52.28;98136.88;4147561;28;20554;-72
2024/02/24 02:14:11;;;;;;;5.05;1.92;;;;;;;7.34;52.56;98142.84;4150186;28;20033;-74
2024/02/24 02:16:12;;;;;;;6.13;1.98;;;;;;;7.31;52.70;98143.19;4147808;28;20024;-74
2024/02/24 02:18:12;;;;;;;6.43;1.98;;;;;;;7.25;52.88;98149.19;4152552;28;20094;-73
2024/02/24 02:20:13;;;;;;;6.47;2.15;;;;;;;7.31;52.82;98145.84;4156732;28;20210;-74
2024/02/24 02:22:18;;;;;;;7.32;2.05;;;;;;;7.20;53.32;98156.00;4165424;28;20046;-74
2024/02/24 02:24:18;;;;;;;6.50;2.47;;;;;;;7.12;53.66;98160.34;4165891;28;20038;-74
2024/02/24 02:26:19;;;;;;;5.70;2.10;;;;;;;7.06;53.84;98157.53;4167439;28;20080;-73
2024/02/24 02:28:19;;;;;;;4.63;1.95;;;;;;;6.79;54.82;98170.19;4166925;28;20093;-73
2024/02/24 02:30:24;;;;;;;8.25;2.25;;;;;;;6.88;55.08;98169.19;4167127;28;20073;-75
2024/02/24 02:32:24;;;;;;;5.20;1.90;;;;;;;6.90;55.16;98167.16;4166920;28;20080;-75
2024/02/24 02:34:33;;;;;;;5.13;2.33;;;;;;;6.84;55.97;98165.19;4167261;28;20166;-76
2024/02/24 02:36:34;;;;;;;5.68;1.85;;;;;;;6.88;55.89;98153.25;4159406;28;20022;-74
2024/02/24 02:38:34;;;;;;;5.87;2.20;;;;;;;6.79;56.57;98152.41;4154617;28;20064;-73
2024/02/24 02:40:35;;;;;;;5.68;2.65;;;;;;;6.96;56.39;98155.03;4145803;28;20026;-74
2024/02/24 02:42:36;;;;;;;10.48;2.38;;;;;;;6.94;56.88;98170.34;4156551;28;20056;-73
2024/02/24 02:44:36;;;;;;;5.17;2.13;;;;;;;6.84;57.46;98173.16;4161541;28;20026;-72
2024/02/24 02:46:36;;;;;;;5.85;2.40;;;;;;;7.19;56.48;98160.47;4130996;28;20031;-73
2024/02/24 02:48:37;;;;;;;6.30;2.40;;;;;;;7.29;56.43;98155.00;4130502;28;20037;-72
2024/02/24 02:50:37;;;;;;;5.80;2.38;;;;;;;7.38;56.16;98148.66;4131774;28;20463;-74
2024/02/24 02:52:38;;;;;;;5.15;2.33;;;;;;;7.34;56.20;98153.50;4148335;28;20498;-73
2024/02/24 02:54:38;;;;;;;4.70;1.55;;;;;;;7.42;56.22;98157.13;4162330;28;20025;-73
2024/02/24 02:56:38;;;;;;;6.30;1.92;;;;;;;7.27;56.96;98154.31;4155115;28;20033;-73
2024/02/24 02:58:39;;;;;;;4.73;1.97;;;;;;;7.32;56.83;98144.03;4130652;28;20026;-73
2024/02/24 03:00:40;;;;;;;5.60;1.98;;;;;;;7.39;56.92;98149.47;4130503;28;20624;-74
2024/02/24 03:02:40;;;;;;;4.78;1.90;;;;;;;7.41;56.96;98142.16;4130953;28;20068;-73
2024/02/24 03:04:40;;;;;;;5.90;1.83;;;;;;;7.32;57.32;98149.34;4129153;28;20054;-74
2024/02/24 03:06:41;;;;;;;5.30;2.17;;;;;;;7.16;57.92;98151.03;4130535;28;20076;-74
2024/02/24 03:08:42;;;;;;;5.37;1.97;;;;;;;7.14;58.26;98162.84;4130821;28;20037;-73
2024/02/24 03:10:42;;;;;;;4.18;2.08;;;;;;;7.07;58.68;98167.97;4145252;28;20026;-72
2024/02/24 03:12:44;;;;;;;6.03;1.85;;;;;;;7.05;58.79;98163.84;4141596;28;20062;-73
2024/02/24 03:14:44;;;;;;;3.70;1.70;;;;;;;6.98;59.07;98169.00;4135575;28;20048;-73
2024/02/24 03:16:44;;;;;;;5.73;1.83;;;;;;;7.13;58.59;98163.81;4130684;28;20038;-74
2024/02/24 03:18:45;;;;;;;4.70;2.20;;;;;;;7.02;58.95;98165.00;4130817;28;20348;-72
2024/02/24 03:20:46;;;;;;;5.00;1.95;;;;;;;7.08;58.89;98160.84;4132826;28;20037;-73
2024/02/24 03:22:46;;;;;;;5.73;1.70;;;;;;;7.02;58.99;98159.69;4133646;28;20022;-74
2024/02/24 03:24:46;;;;;;;4.23;1.77;;;;;;;7.11;58.59;98161.34;4133813;28;20615;-73
2024/02/24 03:26:47;;;;;;;5.20;2.00;;;;;;;7.05;59.09;98169.16;4133821;28;20269;-72
2024/02/24 03:28:48;;;;;;;4.53;1.70;;;;;;;7.04;58.98;98168.31;4132038;28;20153;-75
2024/02/24 03:30:48;;;;;;;7.47;1.95;;;;;;;7.09;59.08;98175.78;4133465;28;20026;-74
2024/02/24 03:32:48;;;;;;;5.25;1.73;;;;;;;7.12;58.89;98164.81;4134003;28;20117;-72
2024/02/24 03:34:49;;;;;;;3.50;1.80;;;;;;;7.01;59.38;98173.97;4148781;28;20034;-73
2024/02/24 03:36:49;;;;;;;4.80;1.63;;;;;;;7.03;59.27;98167.50;4133540;28;20383;-73
2024/02/24 03:38:50;;;;;;;5.40;1.77;;;;;;;6.98;59.39;98169.00;4133338;28;20042;-72
2024/02/24 03:40:50;;;;;;;4.70;1.42;;;;;;;6.95;59.55;98169.31;4133496;28;20041;-73
2024/02/24 03:42:50;;;;;;;4.95;1.73;;;;;;;7.05;59.25;98166.50;4132349;28;20052;-73
2024/02/24 03:44:51;;;;;;;4.73;1.60;;;;;;;7.02;59.34;98165.84;4132155;28;20031;-73
2024/02/24 03:46:51;;;;;;;5.00;1.70;;;;;;;7.02;59.11;98160.50;4133508;28;20038;-73
2024/02/24 03:48:52;;;;;;;6.03;1.70;;;;;;;7.09;59.13;98171.31;4133700;28;20305;-73
2024/02/24 03:50:53;;;;;;;4.15;1.55;;;;;;;7.17;58.93;98176.59;4135887;28;20064;-73
2024/02/24 03:52:53;;;;;;;5.65;1.63;;;;;;;7.11;59.04;98166.66;4160787;28;20033;-73
2024/02/24 03:54:54;;;;;;;4.57;1.95;;;;;;;7.12;59.22;98164.81;4178059;28;20035;-73
2024/02/24 03:56:54;;;;;;;4.37;1.30;;;;;;;7.18;58.92;98166.78;4172546;28;20097;-73
2024/02/24 03:58:55;;;;;;;3.77;1.63;;;;;;;7.25;58.68;98159.81;4173259;28;20025;-73
2024/02/24 04:00:56;;;;;;;3.20;1.33;;;;;;;7.27;58.64;98155.19;4173238;28;20288;-73
2024/02/24 04:02:57;;;;;;;4.05;1.65;;;;;;;7.26;58.56;98156.16;4172860;28;20036;-73
2024/02/24 04:04:57;;;;;;;3.83;1.52;;;;;;;7.25;58.76;98165.13;4173131;28;20041;-73
2024/02/24 04:06:57;;;;;;;3.78;1.50;;;;;;;7.07;59.49;98173.28;4170387;28;20382;-74
2024/02/24 04:08:58;;;;;;;5.73;2.20;;;;;;;7.07;59.46;98167.16;4166381;28;20494;-72
2024/02/24 04:10:58;;;;;;;7.63;1.90;;;;;;;6.91;59.94;98168.81;4166000;28;20352;-73
2024/02/24 04:12:59;;;;;;;5.30;1.53;;;;;;;7.11;59.44;98179.94;4166304;28;20040;-73
2024/02/24 04:14:59;;;;;;;4.13;1.53;;;;;;;7.13;59.29;98171.78;4166741;28;20272;-75
2024/02/24 04:16:59;;;;;;;5.43;2.50;;;;;;;7.17;59.20;98171.28;4166187;28;20025;-74
2024/02/24 04:19:01;;;;;;;3.90;2.00;;;;;;;7.12;59.35;98170.13;4165597;28;20653;-73
2024/02/24 04:21:01;;;;;;;5.10;1.77;;;;;;;7.04;59.56;98170.97;4175462;28;20014;-75
2024/02/24 04:23:02;;;;;;;3.67;1.50;;;;;;;7.11;59.45;98185.25;4183336;28;20032;-73
2024/02/24 04:25:02;;;;;;;4.28;1.60;;;;;;;7.21;59.16;98173.63;4176750;28;20076;-73
2024/02/24 04:27:03;;;;;;;4.00;1.65;;;;;;;7.12;59.42;98172.78;4165582;28;20032;-72
2024/02/24 04:29:04;;;;;;;3.80;1.65;;;;;;;7.13;59.26;98171.78;4165521;28;20036;-72
2024/02/24 04:31:04;;;;;;;4.70;2.13;;;;;;;6.95;59.86;98177.28;4164014;28;20017;-72
2024/02/24 04:33:06;;;;;;;6.47;1.97;;;;;;;6.95;59.75;98186.09;4165532;28;20029;-73
2024/02/24 04:35:07;;;;;;;2.90;1.17;;;;;;;6.95;59.84;98196.72;4166078;28;20478;-72
2024/02/24 04:37:07;;;;;;;3.78;1.50;;;;;;;7.01;59.83;98200.56;4166215;28;20036;-72
2024/02/24 04:39:09;;;;;;;3.75;1.30;;;;;;;6.90;60.02;98206.19;4165605;28;20167;-73
2024/02/24 04:41:09;;;;;;;5.75;1.60;;;;;;;7.01;59.82;98204.03;4165094;28;20033;-73
2024/02/24 04:43:09;;;;;;;5.47;1.80;;;;;;;7.08;59.62;98200.72;4165400;28;20025;-73
2024/02/24 04:45:10;;;;;;;4.78;1.52;;;;;;;7.03;59.71;98203.88;4164269;28;20076;-72
2024/02/24 04:47:10;;;;;;;3.72;1.80;;;;;;;7.08;59.52;98200.72;4170132;28;20087;-72
2024/02/24 04:49:11;;;;;;;3.10;1.40;;;;;;;7.21;59.16;98194.88;4168950;28;20044;-72
2024/02/24 04:51:11;;;;;;;2.83;1.20;;;;;;;7.20;59.19;98186.06;4164402;28;20260;-72
2024/02/24 04:53:11;;;;;;;3.97;1.80;;;;;;;7.28;58.89;98185.22;4156747;28;20272;-74
2024/02/24 04:55:12;;;;;;;3.60;1.30;;;;;;;7.24;58.95;98192.72;4163343;28;20514;-73
2024/02/24 04:57:13;;;;;;;4.18;1.05;;;;;;;7.02;59.69;98207.53;4165005;28;20596;-73
2024/02/24 04:59:14;;;;;;;4.00;1.25;;;;;;;7.12;59.50;98210.00;4164931;28;20036;-73
2024/02/24 05:01:17;;;;;;;4.13;1.42;;;;;;;7.12;59.58;98210.00;4164909;28;20056;-73
2024/02/24 05:03:17;;;;;;;2.58;0.95;;;;;;;7.12;59.65;98212.66;4164680;28;20049;-72
2024/02/24 05:05:18;;;;;;;4.93;1.45;;;;;;;7.24;59.39;98211.31;4164959;28;20079;-73
2024/02/24 05:07:18;;;;;;;3.03;1.17;;;;;;;7.09;59.77;98213.81;4164804;28;20077;-74
2024/02/24 05:09:19;;;;;;;3.35;1.05;;;;;;;7.06;60.06;98213.34;4164685;28;20068;-71
2024/02/24 05:11:20;;;;;;;3.78;1.23;;;;;;;6.91;60.42;98219.28;4163053;28;20044;-73
2024/02/24 05:13:21;;;;;;;3.03;1.20;;;;;;;6.93;60.57;98225.28;4164644;28;20489;-75
2024/02/24 05:15:22;;;;;;;3.50;1.35;;;;;;;6.99;60.57;98224.59;4164441;28;20040;-74
2024/02/24 05:17:22;;;;;;;3.65;1.30;;;;;;;7.01;60.58;98235.91;4163189;28;20027;-72
2024/02/24 05:19:22;;;;;;;3.37;1.43;;;;;;;7.01;60.64;98222.63;4163995;28;20091;-72
2024/02/24 05:21:23;;;;;;;3.87;1.30;;;;;;;7.07;60.53;98236.25;4164056;28;20287;-72
2024/02/24 05:23:24;;;;;;;3.20;1.20;;;;;;;7.07;60.72;98225.63;4163487;28;20268;-74
2024/02/24 05:25:24;;;;;;;3.47;1.30;;;;;;;7.10;60.67;98223.47;4163966;28;20599;-73
2024/02/24 05:27:25;;;;;;;4.40;1.08;;;;;;;7.08;60.61;98227.28;4164140;28;20501;-73
2024/02/24 05:29:25;;;;;;;4.45;1.20;;;;;;;7.04;60.82;98232.06;4164043;28;20022;-73
2024/02/24 05:31:25;;;;;;;3.00;1.07;;;;;;;7.06;60.68;98229.28;4164242;28;20029;-73
2024/02/24 05:33:26;;;;;;;4.73;1.23;;;;;;;7.00;61.07;98233.44;4164415;28;20032;-74
2024/02/24 05:35:26;;;;;;;4.30;1.63;;;;;;;7.01;61.02;98241.22;4164285;28;20264;-74
2024/02/24 05:37:27;;;;;;;4.60;1.30;;;;;;;7.03;61.13;98244.53;4164061;28;20383;-73
2024/02/24 05:39:27;;;;;;;3.70;1.33;;;;;;;7.16;60.67;98244.03;4164074;28;20267;-73
2024/02/24 05:41:27;;;;;;;3.50;1.10;;;;;;;7.26;60.37;98243.88;4164040;28;20080;-73
2024/02/24 05:43:28;;;;;;;2.57;0.93;;;;;;;7.40;59.89;98250.34;4162286;28;20132;-74
2024/02/24 05:45:29;;;;;;;2.97;1.00;;;;;;;7.43;59.98;98252.66;4163605;28;20029;-74
2024/02/24 05:47:29;;;;;;;3.00;1.00;;;;;;;7.49;59.79;98249.34;4164284;28;20033;-72
2024/02/24 05:49:29;;;;;;;3.70;1.13;;;;;;;7.42;60.11;98255.47;4164158;28;20029;-74
2024/02/24 05:51:30;;;;;;;3.93;1.37;;;;;;;7.45;59.95;98257.81;4163595;28;20108;-73
2024/02/24 05:53:32;;;;;;;3.90;1.10;;;;;;;7.29;60.49;98269.28;4140423;28;20037;-72
2024/02/24 05:55:32;;;;;;;3.05;1.20;;;;;;;7.28;60.57;98271.09;4130344;28;20505;-73
2024/02/24 05:57:32;;;;;;;3.67;1.10;;;;;;;7.29;60.53;98271.94;4130038;28;20032;-73
2024/02/24 05:59:35;;;;;;;3.37;1.20;;;;;;;7.27;60.76;98274.78;4131618;28;20060;-72
2024/02/24 06:01:36;;;;;;;2.58;1.00;;;;;;;7.22;60.92;98271.78;4131744;28;20407;-72
2024/02/24 06:03:36;;;;;;;2.60;1.00;;;;;;;7.27;60.60;98276.59;4131100;28;20101;-73
2024/02/24 06:05:36;;;;;;;2.50;1.13;;;;;;;7.49;60.16;98270.59;4131278;28;20618;-74
2024/02/24 06:07:38;;;;;;;3.13;1.23;;;;;;;7.39;60.44;98269.94;4131987;28;20074;-74
2024/02/24 06:09:39;;;;;;;2.72;0.90;;;;;;;7.47;60.29;98275.25;4131977;28;20058;-73
2024/02/24 06:11:39;;;;;;;2.85;1.00;;;;;;;7.67;59.77;98268.72;4131172;28;20030;-73
2024/02/24 06:13:40;;;;;;;2.40;0.90;;;;;;;7.70;59.56;98263.91;4131672;28;20031;-73
2024/02/24 06:15:40;;;;;;;3.60;1.10;;;;;;;7.66;59.60;98267.91;4132415;28;20094;-73
2024/02/24 06:17:40;;;;;;;3.65;0.75;;;;;;;7.76;59.34;98271.22;4131425;28;20457;-73
2024/02/24 06:19:41;;;;;;;3.03;0.77;;;;;;;7.74;59.35;98291.00;4132100;28;20035;-73
2024/02/24 06:21:41;;;;;;;4.30;1.00;;;;;;;7.67;59.56;98303.31;4137483;28;20030;-74
2024/02/24 06:23:42;;;;;;;3.35;1.08;;;;;;;7.61;59.76;98310.97;4150346;28;20269;-73
2024/02/24 06:25:42;;;;;;;3.03;1.00;;;;;;;7.59;59.83;98314.81;4131082;28;20041;-73
2024/02/24 06:27:43;;;;;;;2.87;0.93;;;;;;;7.55;59.72;98309.00;4130720;28;20033;-72
2024/02/24 06:29:43;;;;;;;2.20;0.82;;;;;;;7.53;59.91;98316.31;4146263;28;20414;-73
2024/02/24 06:31:44;;;;;;;3.30;1.23;;;;;;;7.65;59.60;98316.78;4130088;28;20432;-72
2024/02/24 06:33:44;;;;;;;2.70;1.00;;;;;;;7.65;59.55;98322.91;4131398;28;20053;-72
2024/02/24 06:35:45;;;;;;;3.03;1.00;;;;;;;7.60;59.53;98309.31;4131003;28;20550;-72
2024/02/24 06:37:45;;;;;;;3.83;1.40;;;;;;;7.78;59.33;98326.91;4130944;28;20491;-72
2024/02/24 06:39:45;;;;;;;1.87;0.80;;;;;;;7.90;58.96;98320.22;4131442;28;20105;-72
2024/02/24 06:41:46;;;;;;;3.70;1.33;;;;;;;7.84;58.93;98322.72;4129101;28;20270;-72
2024/02/24 06:43:46;;;;;;;5.28;1.05;;;;;;;7.64;59.31;98334.59;4131495;28;20026;-74
2024/02/24 06:45:47;;;;;;;3.05;1.23;;;;;;;7.61;59.60;98334.06;4129886;28;20045;-74
2024/02/24 06:47:47;;;;;;;3.53;1.23;;;;;;;7.79;59.03;98326.72;4130907;28;20905;-73
2024/02/24 06:49:48;;;;;;;3.30;1.30;;;;;;;7.50;59.58;98327.25;4131852;28;20640;-72
2024/02/24 06:51:49;;;;;;;4.03;1.20;;;;;;;7.65;59.26;98330.06;4131504;28;20088;-72
2024/02/24 06:53:49;;;;;;;;;;;;;;;7.71;58.62;98339.22;4132596;28;20300;-72
2024/02/24 06:55:50;;;;;;;3.63;1.30;;;;;;;7.60;59.12;98349.19;4155586;28;19913;-72
2024/02/24 06:57:51;;;;;;;4.70;1.87;;;;;;;7.55;59.24;98350.69;4160965;28;20030;-73
2024/02/24 06:59:52;;;;;;;4.22;1.20;;;;;;;7.61;59.06;98366.81;4158143;28;20025;-72
2024/02/24 07:01:54;;;;;;;5.07;1.40;;;;;;;7.52;59.29;98362.50;4153927;28;20029;-72
2024/02/24 07:03:55;;;;;;;4.43;1.65;;;;;;;7.43;59.92;98364.31;4151658;28;20247;-72
2024/02/24 07:05:55;;;;;;;3.37;1.23;;;;;;;7.64;59.19;98365.66;4151079;28;20069;-72
2024/02/24 07:07:55;;;;;;;3.50;1.40;;;;;;;7.61;59.22;98373.94;4150148;28;20026;-74
2024/02/24 07:09:56;;;;;;;3.33;1.20;;;;;;;7.64;59.15;98370.97;4150300;28;20022;-73
2024/02/24 07:11:56;;;;;;;4.20;1.73;;;;;;;7.71;58.93;98376.47;4148636;28;20632;-72
2024/02/24 07:13:57;;;;;;;2.85;1.30;;;;;;;7.64;59.02;98365.66;4150095;28;20037;-74
2024/02/24 07:15:57;;;;;;;4.87;1.50;;;;;;;7.55;59.22;98371.97;4149631;28;20033;-72
2024/02/24 07:17:57;;;;;;;3.73;1.37;;;;;;;7.50;59.48;98380.44;4148528;28;20304;-73
2024/02/24 07:19:58;;;;;;;3.90;1.30;;;;;;;7.56;59.27;98395.72;4149997;28;20690;-73
2024/02/24 07:22:00;;;;;;;7.00;1.80;;;;;;;7.51;59.58;98398.06;4149087;28;20045;-74
2024/02/24 07:24:00;;;;;;;4.20;1.15;;;;;;;7.56;59.31;98390.41;4149874;28;20034;-73
2024/02/24 07:26:02;;;;;;;4.18;1.27;;;;;;;7.65;59.19;98392.06;4149364;28;20080;-73
2024/02/24 07:28:02;;;;;;;3.88;1.20;;;;;;;7.65;58.93;98389.41;4149947;28;20153;-72
2024/02/24 07:30:04;;;;;;;4.15;1.42;;;;;;;7.71;59.02;98400.41;4148660;28;20064;-74
2024/02/24 07:32:05;;;;;;;3.63;1.40;;;;;;;7.84;58.65;98403.38;4150972;28;20022;-72
2024/02/24 07:34:06;;;;;;;3.50;1.48;;;;;;;7.80;58.86;98399.41;4150053;28;20022;-72
2024/02/24 07:36:06;;;;;;;4.53;1.50;;;;;;;7.84;58.53;98400.69;4149724;28;20030;-73
2024/02/24 07:38:07;;;;;;;4.07;1.90;;;;;;;7.63;59.04;98407.38;4148255;28;20508;-73
2024/02/24 07:40:08;;;;;;;3.63;1.52;;;;;;;7.79;58.78;98419.84;4149568;28;20482;-72
2024/02/24 07:42:08;;;;;;;3.53;1.45;;;;;;;7.74;58.72;98421.34;4148054;28;20030;-72
2024/02/24 07:44:09;;;;;;;3.20;1.30;;;;;;;7.89;58.36;98424.16;4149925;28;20029;-73
2024/02/24 07:46:10;;;;;;;3.20;1.20;;;;;;;7.87;58.47;98426.16;4149600;28;20045;-73
2024/02/24 07:48:11;;;;;;;2.60;1.10;;;;;;;7.89;58.36;98435.63;4149433;28;20557;-73
2024/02/24 07:50:11;;;;;;;5.20;1.30;;;;;;;7.68;58.67;98443.28;4148379;28;20094;-73
2024/02/24 07:52:12;;;;;;;4.40;1.30;;;;;;;7.82;58.42;98439.97;4148054;28;20108;-74
2024/02/24 07:54:12;;;;;;;4.47;1.67;;;;;;;7.90;58.17;98445.28;4149679;28;20026;-73
2024/02/24 07:56:13;;;;;;;4.53;1.57;;;;;;;8.12;57.54;98448.28;4154457;28;20065;-73
2024/02/24 07:58:14;;;;;;;5.28;1.35;;;;;;;7.95;57.88;98448.25;4155163;28;20745;-73
2024/02/24 08:00:15;;;;;;;3.90;1.30;;;;;;;8.21;57.30;98452.59;4149563;28;20490;-74
2024/02/24 08:02:15;;;;;;;4.15;1.63;;;;;;;8.08;57.43;98458.41;4149008;28;20059;-73
2024/02/24 08:04:15;;;;;;;3.85;1.30;;;;;;;8.08;57.47;98460.25;4149115;28;20102;-72
2024/02/24 08:06:16;;;;;;;4.88;1.70;;;;;;;8.00;57.75;98458.41;4149369;28;20109;-72
2024/02/24 08:08:17;;;;;;;4.25;1.80;;;;;;;8.11;57.37;98458.06;4149133;28;20060;-72
2024/02/24 08:10:17;;;;;;;5.05;1.30;;;;;;;8.10;57.50;98461.72;4148184;28;20026;-73
2024/02/24 08:12:18;;;;;;;3.20;1.07;;;;;;;8.12;57.31;98478.38;4149323;28;20025;-73
2024/02/24 08:14:18;;;;;;;3.97;1.40;;;;;;;8.34;57.06;98476.03;4150906;28;20299;-72
2024/02/24 08:16:22;;;;;;;3.30;1.53;;;;;;;8.31;57.06;98479.03;4150242;28;20053;-72
2024/02/24 08:18:24;;;;;;;4.15;1.50;;;;;;;8.27;57.38;98483.84;4150574;28;20914;-73
2024/02/24 08:20:24;;;;;;;7.13;1.50;;;;;;;8.17;57.22;98488.53;4149263;28;20109;-74
2024/02/24 08:22:24;;;;;;;5.32;1.52;;;;;;;8.10;57.51;98493.66;4150358;28;20103;-73
2024/02/24 08:24:25;;;;;;;3.70;1.20;;;;;;;8.13;57.57;98497.81;4150619;28;20033;-72
2024/02/24 08:26:25;;;;;;;3.53;1.30;;;;;;;8.23;57.46;98503.00;4149723;28;20474;-74
2024/02/24 08:28:26;;;;;;;3.85;1.35;;;;;;;8.34;57.31;98510.66;4147854;28;20022;-72
2024/02/24 08:30:26;;;;;;;3.58;1.38;;;;;;;8.48;57.06;98516.31;4148870;28;20026;-72
2024/02/24 08:32:29;;;;;;;3.10;1.20;;;;;;;8.36;57.40;98523.78;4148794;28;20029;-73
2024/02/24 08:34:29;;;;;;;3.78;1.10;;;;;;;8.49;57.02;98523.28;4148973;28;20038;-72
2024/02/24 08:36:30;;;;;;;2.97;1.20;;;;;;;8.53;56.99;98519.31;4149128;28;20381;-74
2024/02/24 08:38:31;;;;;;;2.78;1.02;;;;;;;8.33;57.52;98532.09;4149050;28;20265;-71
2024/02/24 08:40:32;;;;;;;2.85;1.00;;;;;;;8.64;56.72;98531.44;4148907;28;20101;-74
2024/02/24 08:42:32;;;;;;;4.70;1.48;;;;;;;8.73;56.48;98535.75;4148724;28;20029;-72
2024/02/24 08:44:33;;;;;;;3.20;1.20;;;;;;;8.62;56.83;98538.75;4147545;28;20073;-73
2024/02/24 08:46:33;;;;;;;2.70;0.95;;;;;;;8.85;56.52;98534.38;4148876;28;20261;-72
2024/02/24 08:48:34;;;;;;;2.45;0.90;;;;;;;8.98;56.31;98538.34;4149152;28;20076;-73
2024/02/24 08:50:35;;;;;;;3.22;1.10;;;;;;;8.86;56.54;98537.88;4148902;28;20022;-74
2024/02/24 08:52:35;;;;;;;4.68;1.10;;;;;;;8.94;56.78;98542.34;4151697;28;20109;-73
2024/02/24 08:54:36;;;;;;;3.50;1.40;;;;;;;9.08;56.37;98554.97;4155987;28;20030;-74
2024/02/24 08:56:37;;;;;;;4.22;1.38;;;;;;;9.60;54.94;98552.75;4155198;28;20296;-73
2024/02/24 08:58:37;;;;;;;2.78;1.00;;;;;;;9.77;54.60;98549.00;4159236;28;20437;-74
2024/02/24 09:00:38;;;;;;;3.78;1.00;;;;;;;9.99;53.71;98552.69;4171379;28;20037;-74
2024/02/24 09:02:39;;;;;;;2.42;0.95;;;;;;;10.41;53.03;98549.72;4176437;28;20029;-75
2024/02/24 09:04:39;;;;;;;3.80;1.27;;;;;;;10.60;52.51;98553.72;4164856;28;20045;-76
2024/02/24 09:06:39;;;;;;;2.97;1.02;;;;;;;10.75;52.14;98541.22;4166986;28;20179;-73
2024/02/24 09:08:40;;;;;;;4.97;1.27;;;;;;;10.87;51.71;98546.09;4168707;28;20025;-73
2024/02/24 09:10:40;;;;;;;3.00;0.80;;;;;;;10.86;51.34;98553.31;4162644;28;20257;-72
2024/02/24 09:12:41;;;;;;;1.90;0.70;;;;;;;10.80;50.80;98558.53;4169520;28;20026;-74
2024/02/24 09:14:41;;;;;;;3.17;0.98;;;;;;;10.74;51.32;98555.59;4173549;28;20049;-71
2024/02/24 09:16:42;;;;;;;2.40;0.90;;;;;;;10.48;51.44;98560.53;4168935;28;20026;-72
2024/02/24 09:18:42;;;;;;;2.10;0.70;;;;;;;10.08;52.09;98550.78;4164525;28;20057;-73
2024/02/24 09:20:43;;;;;;;3.53;0.80;;;;;;;10.36;51.58;98558.25;4173904;28;20283;-73
2024/02/24 09:22:44;;;;;;;2.33;1.00;;;;;;;10.08;51.99;98564.13;4160431;28;20041;-74
2024/02/24 09:24:44;;;;;;;1.80;0.77;;;;;;;10.10;51.53;98564.78;4158169;28;20025;-74
2024/02/24 09:26:45;;;;;;;2.93;0.70;;;;;;;10.24;51.15;98567.69;4156279;28;20034;-73
2024/02/24 09:28:46;;;;;;;2.93;0.90;;;;;;;10.43;50.91;98575.25;4161207;28;20745;-74
2024/02/24 09:30:47;;;;;;;2.28;1.00;;;;;;;10.29;51.31;98584.03;4162638;28;20265;-74
2024/02/24 09:32:48;;;;;;;2.95;0.93;;;;;;;10.03;51.60;98587.03;4164724;28;20089;-73
2024/02/24 09:34:48;;;;;;;2.35;0.70;;;;;;;10.27;51.46;98570.00;4156976;28;20474;-73